createdAt,value
2019-03-26T00:00:38.119Z,2.50
2019-03-26T00:03:06.415Z,3.30
2019-03-26T00:05:34.738Z,2.85
2019-03-26T00:08:03.041Z,2.60
2019-03-26T00:10:31.387Z,3.25
2019-03-26T00:12:59.679Z,2.92
2019-03-26T00:15:28.322Z,3.20
2019-03-26T00:17:59.619Z,3.30
2019-03-26T00:20:28.514Z,3.08
2019-03-26T00:22:56.820Z,3.17
2019-03-26T00:25:25.159Z,3.02
2019-03-26T00:27:53.465Z,3.27
2019-03-26T00:30:21.784Z,3.80
2019-03-26T00:32:50.096Z,3.62
2019-03-26T00:35:18.399Z,3.80
2019-03-26T00:37:47.020Z,3.50
2019-03-26T00:40:15.336Z,3.30
2019-03-26T00:42:43.765Z,3.00
2019-03-26T00:45:12.192Z,2.72
2019-03-26T00:47:40.531Z,3.30
2019-03-26T00:50:09.325Z,3.90
2019-03-26T00:52:37.644Z,3.67
2019-03-26T00:55:21.730Z,3.53
2019-03-26T00:57:38.009Z,3.33
2019-03-26T01:00:08.203Z,2.67
2019-03-26T01:02:36.834Z,3.00
2019-03-26T01:05:07.076Z,3.05
2019-03-26T01:07:35.388Z,3.30
2019-03-26T01:10:06.552Z,2.87
2019-03-26T01:12:34.947Z,3.10
2019-03-26T01:15:04.880Z,2.87
2019-03-26T01:17:33.211Z,3.60
2019-03-26T01:20:01.841Z,2.70
2019-03-26T01:22:30.147Z,3.27
2019-03-26T01:24:58.532Z,3.30
2019-03-26T01:27:26.860Z,2.98
2019-03-26T01:29:55.160Z,2.90
2019-03-26T01:32:23.478Z,2.60
2019-03-26T01:34:51.833Z,2.80
2019-03-26T01:37:20.140Z,3.15
2019-03-26T01:39:48.428Z,3.10
2019-03-26T01:42:16.742Z,3.85
2019-03-26T01:44:45.056Z,2.80
2019-03-26T01:47:13.369Z,3.27
2019-03-26T01:49:41.988Z,3.20
2019-03-26T01:52:10.297Z,3.17
2019-03-26T01:54:38.587Z,2.58
2019-03-26T01:57:07.213Z,2.55
2019-03-26T01:59:35.509Z,2.40
2019-03-26T02:02:04.289Z,2.55
2019-03-26T02:04:32.585Z,2.60
2019-03-26T02:07:00.923Z,2.40
2019-03-26T02:09:29.208Z,2.50
2019-03-26T02:11:57.524Z,2.60
2019-03-26T02:14:26.066Z,2.40
2019-03-26T02:16:54.390Z,2.33
2019-03-26T02:19:22.692Z,2.90
2019-03-26T02:21:51.310Z,2.83
2019-03-26T02:24:19.915Z,2.80
2019-03-26T02:26:48.210Z,2.60
2019-03-26T02:29:16.524Z,2.73
2019-03-26T02:31:44.826Z,2.47
2019-03-26T02:34:13.133Z,2.40
2019-03-26T02:36:41.413Z,2.55
2019-03-26T02:39:09.807Z,2.62
2019-03-26T02:41:38.323Z,2.37
2019-03-26T02:44:06.659Z,2.52
2019-03-26T02:46:35.309Z,2.02
2019-03-26T02:49:03.872Z,2.37
2019-03-26T02:51:32.186Z,2.90
2019-03-26T02:54:00.488Z,2.42
2019-03-26T02:56:28.858Z,2.98
2019-03-26T02:58:57.159Z,3.08
2019-03-26T03:01:25.458Z,2.40
2019-03-26T03:03:53.832Z,2.25
2019-03-26T03:06:22.391Z,2.40
2019-03-26T03:08:50.696Z,2.50
2019-03-26T03:11:19.000Z,2.33
2019-03-26T03:13:47.314Z,2.33
2019-03-26T03:16:15.600Z,2.10
2019-03-26T03:18:43.900Z,2.10
2019-03-26T03:21:12.200Z,1.92
2019-03-26T03:23:40.497Z,1.80
2019-03-26T03:26:08.798Z,2.15
2019-03-26T03:28:37.530Z,2.35
2019-03-26T03:31:05.837Z,2.37
2019-03-26T03:33:34.167Z,2.30
2019-03-26T03:36:02.491Z,2.40
2019-03-26T03:38:30.794Z,2.40
2019-03-26T03:40:59.102Z,2.20
2019-03-26T03:43:27.377Z,1.98
2019-03-26T03:45:56.272Z,2.10
2019-03-26T03:48:24.738Z,2.15
2019-03-26T03:50:53.721Z,2.33
2019-03-26T03:53:22.958Z,2.10
2019-03-26T03:55:51.565Z,2.12
2019-03-26T03:58:21.710Z,2.55
2019-03-26T04:00:50.029Z,1.60
2019-03-26T04:03:18.613Z,2.90
2019-03-26T04:05:47.214Z,2.60
2019-03-26T04:08:15.506Z,2.33
2019-03-26T04:10:43.814Z,2.40
2019-03-26T04:13:12.556Z,2.93
2019-03-26T04:15:40.870Z,2.58
2019-03-26T04:18:09.512Z,2.25
2019-03-26T04:20:43.514Z,2.27
2019-03-26T04:23:11.810Z,2.20
2019-03-26T04:25:40.105Z,2.50
2019-03-26T04:28:08.578Z,2.45
2019-03-26T04:30:37.083Z,1.70
2019-03-26T04:33:05.540Z,2.20
2019-03-26T04:35:33.829Z,2.30
2019-03-26T04:38:02.123Z,2.12
2019-03-26T04:40:30.450Z,1.90
2019-03-26T04:42:58.828Z,2.40
2019-03-26T04:45:27.137Z,2.50
2019-03-26T04:47:55.792Z,2.72
2019-03-26T04:50:24.143Z,2.30
2019-03-26T04:52:52.457Z,2.10
2019-03-26T04:55:21.022Z,2.52
2019-03-26T04:57:49.379Z,2.35
2019-03-26T05:00:18.078Z,2.50
2019-03-26T05:02:46.345Z,2.65
2019-03-26T05:05:14.646Z,2.95
2019-03-26T05:07:42.966Z,2.30
2019-03-26T05:10:11.956Z,2.35
2019-03-26T05:12:40.354Z,4.00
2019-03-26T05:15:08.722Z,2.98
2019-03-26T05:17:37.038Z,8.43
2019-03-26T05:20:07.091Z,19.12
2019-03-26T05:22:35.841Z,8.20
2019-03-26T05:25:07.769Z,3.40
2019-03-26T05:27:45.372Z,2.90
2019-03-26T05:30:07.831Z,3.52
2019-03-26T05:32:36.435Z,3.20
2019-03-26T05:35:05.294Z,3.00
2019-03-26T05:37:33.860Z,2.90
2019-03-26T05:40:02.588Z,2.50
2019-03-26T05:42:31.275Z,3.00
2019-03-26T05:44:59.686Z,2.40
2019-03-26T05:47:28.010Z,3.13
2019-03-26T05:49:56.337Z,2.58
2019-03-26T05:52:25.054Z,2.70
2019-03-26T05:54:53.349Z,3.43
2019-03-26T05:57:21.717Z,3.10
2019-03-26T05:59:50.288Z,2.50
2019-03-26T06:02:18.600Z,2.77
2019-03-26T06:04:46.920Z,3.40
2019-03-26T06:07:15.215Z,3.17
2019-03-26T06:09:43.512Z,3.60
2019-03-26T06:12:11.800Z,3.40
2019-03-26T06:14:40.117Z,3.30
2019-03-26T06:17:08.771Z,2.90
2019-03-26T06:19:37.113Z,2.95
2019-03-26T06:22:05.746Z,2.75
2019-03-26T06:24:34.063Z,3.20
2019-03-26T06:27:02.416Z,3.72
2019-03-26T06:29:30.738Z,2.80
2019-03-26T06:31:59.046Z,3.22
2019-03-26T06:34:27.351Z,3.35
2019-03-26T06:36:55.906Z,3.13
2019-03-26T06:39:24.452Z,3.00
2019-03-26T06:41:52.768Z,4.20
2019-03-26T06:44:21.052Z,2.90
2019-03-26T06:46:49.370Z,2.80
2019-03-26T06:49:17.733Z,3.45
2019-03-26T06:51:46.394Z,2.80
2019-03-26T06:54:15.077Z,3.30
2019-03-26T06:56:43.415Z,2.80
2019-03-26T06:59:11.772Z,2.90
2019-03-26T07:01:40.069Z,2.60
2019-03-26T07:04:08.381Z,3.55
2019-03-26T07:06:36.691Z,3.80
2019-03-26T07:09:07.063Z,3.55
2019-03-26T07:11:35.604Z,2.85
2019-03-26T07:14:04.195Z,3.27
2019-03-26T07:16:32.490Z,3.58
2019-03-26T07:19:00.807Z,3.52
2019-03-26T07:21:29.094Z,3.80
2019-03-26T07:23:57.409Z,3.80
2019-03-26T07:26:25.760Z,3.22
2019-03-26T07:28:56.652Z,3.50
2019-03-26T07:31:24.085Z,3.00
2019-03-26T07:33:52.371Z,2.60
2019-03-26T07:36:20.724Z,3.23
2019-03-26T07:38:49.022Z,2.90
2019-03-26T07:41:18.206Z,2.80
2019-03-26T07:43:46.858Z,3.12
2019-03-26T07:46:15.224Z,2.95
2019-03-26T07:48:43.648Z,2.42
2019-03-26T07:51:11.966Z,3.33
2019-03-26T07:53:40.325Z,2.80
2019-03-26T07:56:08.653Z,2.50
2019-03-26T07:58:36.958Z,2.40
2019-03-26T08:01:05.263Z,2.55
2019-03-26T08:03:33.564Z,2.70
2019-03-26T08:06:02.303Z,2.40
2019-03-26T08:08:31.046Z,3.22
2019-03-26T08:10:59.344Z,3.05
2019-03-26T08:13:27.659Z,2.33
2019-03-26T08:15:55.972Z,2.65
2019-03-26T08:18:24.561Z,3.00
2019-03-26T08:20:52.855Z,2.70
2019-03-26T08:23:21.432Z,2.53
2019-03-26T08:25:49.788Z,2.80
2019-03-26T08:28:18.105Z,3.00
2019-03-26T08:30:49.903Z,2.80
2019-03-26T08:33:16.797Z,2.50
2019-03-26T08:35:45.351Z,3.10
2019-03-26T08:38:13.666Z,2.73
2019-03-26T08:40:42.928Z,2.60
2019-03-26T08:43:11.233Z,3.10
2019-03-26T08:45:39.547Z,3.40
2019-03-26T08:48:07.830Z,2.92
2019-03-26T08:50:36.138Z,3.50
2019-03-26T08:53:04.832Z,3.12
2019-03-26T08:55:33.414Z,2.87
2019-03-26T08:58:01.718Z,2.20
2019-03-26T09:00:32.038Z,2.60
2019-03-26T09:03:00.123Z,2.62
2019-03-26T09:05:28.424Z,2.58
2019-03-26T09:07:56.812Z,3.15
2019-03-26T09:10:25.113Z,2.87
2019-03-26T09:12:53.434Z,2.70
2019-03-26T09:15:21.972Z,2.87
2019-03-26T09:17:50.534Z,2.90
2019-03-26T09:20:19.148Z,2.83
2019-03-26T09:22:47.464Z,3.25
2019-03-26T09:25:15.933Z,2.62
2019-03-26T09:27:44.256Z,2.63
2019-03-26T09:30:12.998Z,2.50
2019-03-26T09:32:41.327Z,2.50
2019-03-26T09:35:09.969Z,2.08
2019-03-26T09:37:38.609Z,2.20
2019-03-26T09:40:08.551Z,2.95
2019-03-26T09:42:37.527Z,2.60
2019-03-26T09:45:10.918Z,2.70
2019-03-26T09:47:39.210Z,3.02
2019-03-26T09:50:09.719Z,2.62
2019-03-26T09:52:38.016Z,2.40
2019-03-26T09:55:07.480Z,2.52
2019-03-26T09:57:37.113Z,2.60
2019-03-26T10:00:13.253Z,1.98
2019-03-26T10:02:43.388Z,2.23
2019-03-26T10:05:12.488Z,2.40
2019-03-26T10:07:40.790Z,2.80
2019-03-26T10:10:09.553Z,2.40
2019-03-26T10:12:37.941Z,2.60
2019-03-26T10:15:09.727Z,2.60
2019-03-26T10:17:38.014Z,3.03
2019-03-26T10:20:07.069Z,2.90
2019-03-26T10:22:36.904Z,3.22
2019-03-26T10:25:06.714Z,3.58
2019-03-26T10:27:35.357Z,2.83
2019-03-26T10:30:05.972Z,3.40
2019-03-26T10:32:34.685Z,3.03
2019-03-26T10:35:03.286Z,3.30
2019-03-26T10:37:31.635Z,3.58
2019-03-26T10:39:59.891Z,3.12
2019-03-26T10:42:28.206Z,3.10
2019-03-26T10:44:56.528Z,2.60
2019-03-26T10:47:25.002Z,3.33
2019-03-26T10:49:53.293Z,2.83
2019-03-26T10:52:21.950Z,3.55
2019-03-26T10:54:50.505Z,2.83
2019-03-26T10:57:21.794Z,2.92
2019-03-26T10:59:48.842Z,3.40
2019-03-26T11:02:17.483Z,3.50
2019-03-26T11:04:45.768Z,3.65
2019-03-26T11:07:14.082Z,3.30
2019-03-26T11:09:42.393Z,3.20
2019-03-26T11:12:11.005Z,3.40
2019-03-26T11:14:39.581Z,3.30
2019-03-26T11:17:07.887Z,4.08
2019-03-26T11:19:36.207Z,3.08
2019-03-26T11:22:04.507Z,3.02
2019-03-26T11:24:32.840Z,2.75
2019-03-26T11:27:01.303Z,3.00
2019-03-26T11:29:29.960Z,2.75
2019-03-26T11:31:58.262Z,2.40
2019-03-26T11:34:26.584Z,3.20
2019-03-26T11:36:54.882Z,2.52
2019-03-26T11:39:32.634Z,2.70
2019-03-26T11:41:53.611Z,2.90
2019-03-26T11:44:21.905Z,3.00
2019-03-26T11:46:50.302Z,2.60
2019-03-26T11:49:18.687Z,2.90
2019-03-26T11:51:46.981Z,2.60
2019-03-26T11:54:15.270Z,3.15
2019-03-26T11:56:43.572Z,2.15
2019-03-26T11:59:11.880Z,2.60
2019-03-26T12:01:40.522Z,2.60
2019-03-26T12:04:08.823Z,3.65
2019-03-26T12:06:37.204Z,6.50
2019-03-26T12:09:07.544Z,3.60
2019-03-26T12:11:36.028Z,1.85
2019-03-26T12:14:04.684Z,2.30
2019-03-26T12:16:32.982Z,2.37
2019-03-26T12:19:01.630Z,2.20
2019-03-26T12:21:30.212Z,2.37
2019-03-26T12:23:58.818Z,2.02
2019-03-26T12:26:27.211Z,2.60
2019-03-26T12:28:55.880Z,2.20
2019-03-26T12:31:24.445Z,1.47
2019-03-26T12:33:52.753Z,2.80
2019-03-26T12:36:21.050Z,2.08
2019-03-26T12:38:49.706Z,2.58
2019-03-26T12:41:17.995Z,2.40
2019-03-26T12:43:46.311Z,2.33
2019-03-26T12:46:14.622Z,2.30
2019-03-26T12:48:43.317Z,2.20
2019-03-26T12:51:11.621Z,2.30
2019-03-26T12:53:39.942Z,2.60
2019-03-26T12:56:08.238Z,2.50
2019-03-26T12:58:36.867Z,2.80
2019-03-26T13:01:05.210Z,2.62
2019-03-26T13:03:33.500Z,2.90
2019-03-26T13:06:02.148Z,1.90
2019-03-26T13:08:30.731Z,2.10
2019-03-26T13:10:59.049Z,2.40
2019-03-26T13:13:27.708Z,3.00
2019-03-26T13:15:56.025Z,2.80
2019-03-26T13:18:24.333Z,1.70
2019-03-26T13:20:52.940Z,1.90
2019-03-26T13:23:21.524Z,2.02
2019-03-26T13:25:49.828Z,2.15
2019-03-26T13:28:18.491Z,2.30
2019-03-26T13:30:46.804Z,1.98
2019-03-26T13:33:15.459Z,2.02
2019-03-26T13:35:43.760Z,2.20
2019-03-26T13:38:12.067Z,2.22
2019-03-26T13:40:40.361Z,2.33
2019-03-26T13:43:08.669Z,2.25
2019-03-26T13:45:36.976Z,2.80
2019-03-26T13:48:05.264Z,2.40
2019-03-26T13:50:33.574Z,2.30
2019-03-26T13:53:01.877Z,2.70
2019-03-26T13:55:30.186Z,3.50
2019-03-26T13:57:58.478Z,3.40
2019-03-26T14:00:34.743Z,2.85
2019-03-26T14:03:03.425Z,2.40
2019-03-26T14:05:31.722Z,3.00
2019-03-26T14:08:00.036Z,2.55
2019-03-26T14:10:40.139Z,2.70
2019-03-26T14:12:58.367Z,3.67
2019-03-26T14:15:26.689Z,3.70
2019-03-26T14:17:55.298Z,3.03
2019-03-26T14:20:24.058Z,3.80
2019-03-26T14:22:52.397Z,3.90
2019-03-26T14:25:21.030Z,3.63
2019-03-26T14:27:49.341Z,3.85
2019-03-26T14:30:23.708Z,4.17
2019-03-26T14:32:52.022Z,4.00
2019-03-26T14:35:20.352Z,3.87
2019-03-26T14:37:51.425Z,3.55
2019-03-26T14:40:19.010Z,3.80
2019-03-26T14:42:47.558Z,3.70
2019-03-26T14:45:16.227Z,3.90
2019-03-26T14:47:44.534Z,3.58
2019-03-26T14:50:13.130Z,3.62
2019-03-26T14:52:41.912Z,2.98
2019-03-26T14:55:10.412Z,2.92
2019-03-26T14:57:38.989Z,3.10
2019-03-26T15:00:08.300Z,2.92
2019-03-26T15:02:36.602Z,2.87
2019-03-26T15:05:07.425Z,2.67
2019-03-26T15:07:35.727Z,2.52
2019-03-26T15:10:08.265Z,3.17
2019-03-26T15:12:36.574Z,3.22
2019-03-26T15:15:06.055Z,3.00
2019-03-26T15:17:34.348Z,2.80
2019-03-26T15:20:02.843Z,2.97
2019-03-26T15:22:31.126Z,2.40
2019-03-26T15:24:59.633Z,2.80
2019-03-26T15:27:28.018Z,2.40
2019-03-26T15:29:56.317Z,1.92
2019-03-26T15:32:24.667Z,1.80
2019-03-26T15:34:52.949Z,1.90
2019-03-26T15:37:21.614Z,1.95
2019-03-26T15:39:50.211Z,2.40
2019-03-26T15:42:18.533Z,1.85
2019-03-26T15:44:47.180Z,2.20
2019-03-26T15:47:16.390Z,2.17
2019-03-26T15:49:45.066Z,2.20
2019-03-26T15:52:13.658Z,1.80
2019-03-26T15:54:41.940Z,2.63
2019-03-26T15:57:10.599Z,2.57
2019-03-26T15:59:38.912Z,2.45
2019-03-26T16:02:07.214Z,2.75
2019-03-26T16:04:35.868Z,3.00
2019-03-26T16:07:04.521Z,2.70
2019-03-26T16:09:32.843Z,2.70
2019-03-26T16:12:01.147Z,2.30
2019-03-26T16:14:29.538Z,2.50
2019-03-26T16:16:57.918Z,2.47
2019-03-26T16:19:32.276Z,2.90
2019-03-26T16:21:56.359Z,2.40
2019-03-26T16:24:24.666Z,2.60
2019-03-26T16:26:52.983Z,2.30
2019-03-26T16:29:21.292Z,2.60
2019-03-26T16:31:49.949Z,3.00
2019-03-26T16:34:18.349Z,5.22
2019-03-26T16:36:58.748Z,4.10
2019-03-26T16:39:17.020Z,2.50
2019-03-26T16:41:49.152Z,2.30
2019-03-26T16:44:15.625Z,2.70
2019-03-26T16:46:43.935Z,3.60
2019-03-26T16:49:12.255Z,3.20
2019-03-26T16:51:40.575Z,4.10
2019-03-26T16:54:09.245Z,3.65
2019-03-26T16:56:37.573Z,3.83
2019-03-26T16:59:05.873Z,3.57
2019-03-26T17:01:35.459Z,6.42
2019-03-26T17:04:04.088Z,3.10
2019-03-26T17:06:32.403Z,2.60
2019-03-26T17:09:00.723Z,2.80
2019-03-26T17:11:29.004Z,3.00
2019-03-26T17:13:57.312Z,6.00
2019-03-26T17:16:25.610Z,3.42
2019-03-26T17:18:54.260Z,4.08
2019-03-26T17:21:22.589Z,4.40
2019-03-26T17:23:50.978Z,3.10
2019-03-26T17:26:19.291Z,3.70
2019-03-26T17:28:47.580Z,3.80
2019-03-26T17:31:16.001Z,3.80
2019-03-26T17:33:44.292Z,3.20
2019-03-26T17:36:12.916Z,3.35
2019-03-26T17:38:41.485Z,3.20
2019-03-26T17:41:09.796Z,4.00
2019-03-26T17:43:38.097Z,4.20
2019-03-26T17:46:06.400Z,3.95
2019-03-26T17:48:34.719Z,3.67
2019-03-26T17:51:03.034Z,4.47
2019-03-26T17:53:31.365Z,3.55
2019-03-26T17:55:59.667Z,3.22
2019-03-26T17:58:28.004Z,3.60
2019-03-26T18:00:56.347Z,3.50
2019-03-26T18:03:26.623Z,4.00
2019-03-26T18:05:55.529Z,3.30
2019-03-26T18:08:23.862Z,3.42
2019-03-26T18:10:52.477Z,3.50
2019-03-26T18:13:20.794Z,4.00
2019-03-26T18:15:49.752Z,4.87
2019-03-26T18:18:18.034Z,3.83
2019-03-26T18:20:46.338Z,4.10
2019-03-26T18:23:14.648Z,4.30
2019-03-26T18:25:42.964Z,3.83
2019-03-26T18:28:11.261Z,3.80
2019-03-26T18:30:39.653Z,3.98
2019-03-26T18:33:08.005Z,3.90
2019-03-26T18:35:36.309Z,5.30
2019-03-26T18:38:04.606Z,4.60
2019-03-26T18:40:32.939Z,5.72
2019-03-26T18:43:01.258Z,5.05
2019-03-26T18:45:29.882Z,5.00
2019-03-26T18:47:58.173Z,5.20
2019-03-26T18:50:26.482Z,6.00
2019-03-26T18:52:54.790Z,5.45
2019-03-26T18:55:25.220Z,5.20
2019-03-26T18:57:53.118Z,5.15
2019-03-26T19:00:32.445Z,5.65
2019-03-26T19:03:00.763Z,5.50
2019-03-26T19:05:29.057Z,5.00
2019-03-26T19:07:57.396Z,5.28
2019-03-26T19:10:27.792Z,4.50
2019-03-26T19:12:57.248Z,4.78
2019-03-26T19:15:25.831Z,4.70
2019-03-26T19:17:54.149Z,4.65
2019-03-26T19:20:22.452Z,5.45
2019-03-26T19:22:51.040Z,5.10
2019-03-26T19:25:19.361Z,4.95
2019-03-26T19:27:47.682Z,5.17
2019-03-26T19:30:16.143Z,4.03
2019-03-26T19:32:44.447Z,4.90
2019-03-26T19:35:12.774Z,4.47
2019-03-26T19:37:41.081Z,7.62
2019-03-26T19:40:09.579Z,4.00
2019-03-26T19:42:37.903Z,4.42
2019-03-26T19:45:06.479Z,4.30
2019-03-26T19:47:34.780Z,4.30
2019-03-26T19:50:03.750Z,4.80
2019-03-26T19:52:32.080Z,4.20
2019-03-26T19:55:01.028Z,4.85
2019-03-26T19:57:29.799Z,4.03
2019-03-26T19:59:58.100Z,4.33
2019-03-26T20:02:26.720Z,4.87
2019-03-26T20:04:55.011Z,4.78
2019-03-26T20:07:23.330Z,4.60
2019-03-26T20:09:51.633Z,4.70
2019-03-26T20:12:19.958Z,4.60
2019-03-26T20:14:48.269Z,4.30
2019-03-26T20:17:16.877Z,4.67
2019-03-26T20:19:45.191Z,4.80
2019-03-26T20:22:13.502Z,5.35
2019-03-26T20:24:41.868Z,6.10
2019-03-26T20:27:10.192Z,6.12
2019-03-26T20:29:38.511Z,4.70
2019-03-26T20:32:06.820Z,5.30
2019-03-26T20:34:35.135Z,5.20
2019-03-26T20:37:03.429Z,5.83
2019-03-26T20:39:31.761Z,5.28
2019-03-26T20:42:00.360Z,6.78
2019-03-26T20:44:28.675Z,6.08
2019-03-26T20:46:56.981Z,5.40
2019-03-26T20:49:25.302Z,6.80
2019-03-26T20:51:53.695Z,5.95
2019-03-26T20:54:22.038Z,6.60
2019-03-26T20:56:50.418Z,5.97
2019-03-26T20:59:18.751Z,5.00
2019-03-26T21:01:47.044Z,4.62
2019-03-26T21:04:15.366Z,4.40
2019-03-26T21:06:43.685Z,4.40
2019-03-26T21:09:12.015Z,4.37
2019-03-26T21:11:40.305Z,4.10
2019-03-26T21:14:08.629Z,4.30
2019-03-26T21:16:36.927Z,4.70
2019-03-26T21:19:05.256Z,4.40
2019-03-26T21:21:33.594Z,4.87
2019-03-26T21:24:01.889Z,4.37
2019-03-26T21:26:30.213Z,4.60
2019-03-26T21:28:58.534Z,4.30
2019-03-26T21:31:26.838Z,4.60
2019-03-26T21:33:55.139Z,3.83
2019-03-26T21:36:23.462Z,3.75
2019-03-26T21:38:51.762Z,3.50
2019-03-26T21:41:20.074Z,3.40
2019-03-26T21:43:48.458Z,3.80
2019-03-26T21:46:16.754Z,3.50
2019-03-26T21:48:45.576Z,3.60
2019-03-26T21:51:13.864Z,3.80
2019-03-26T21:53:42.176Z,3.30
2019-03-26T21:56:10.479Z,3.67
2019-03-26T21:58:38.808Z,3.35
2019-03-26T22:01:07.081Z,3.80
2019-03-26T22:03:35.396Z,4.20
2019-03-26T22:06:03.997Z,3.47
2019-03-26T22:08:32.318Z,3.92
2019-03-26T22:11:00.618Z,4.20
2019-03-26T22:13:28.912Z,3.37
2019-03-26T22:15:57.240Z,3.60
2019-03-26T22:18:25.531Z,4.30
2019-03-26T22:20:53.870Z,4.40
2019-03-26T22:23:22.451Z,3.60
2019-03-26T22:25:51.024Z,3.87
2019-03-26T22:28:19.608Z,3.63
2019-03-26T22:30:47.908Z,3.58
2019-03-26T22:33:16.580Z,3.87
2019-03-26T22:35:44.873Z,3.90
2019-03-26T22:38:13.556Z,4.20
2019-03-26T22:40:41.858Z,3.60
2019-03-26T22:43:10.162Z,3.90
2019-03-26T22:45:38.477Z,4.20
2019-03-26T22:48:06.767Z,3.80
2019-03-26T22:50:35.066Z,3.60
2019-03-26T22:53:03.438Z,3.72
2019-03-26T22:55:31.739Z,4.30
2019-03-26T22:58:00.368Z,4.30
2019-03-26T23:00:30.393Z,3.65
2019-03-26T23:02:58.689Z,4.00
2019-03-26T23:05:27.012Z,4.10
2019-03-26T23:07:55.293Z,3.62
2019-03-26T23:10:23.609Z,4.30
2019-03-26T23:12:51.926Z,4.40
2019-03-26T23:15:22.875Z,4.12
2019-03-26T23:17:51.425Z,4.42
2019-03-26T23:20:19.784Z,4.15
2019-03-26T23:22:48.446Z,4.37
2019-03-26T23:25:16.729Z,4.40
2019-03-26T23:27:45.427Z,4.30
2019-03-26T23:30:13.942Z,4.28
2019-03-26T23:32:42.676Z,4.60
2019-03-26T23:35:11.158Z,4.22
2019-03-26T23:37:39.476Z,5.25
2019-03-26T23:40:08.323Z,4.35
2019-03-26T23:42:36.715Z,5.60
2019-03-26T23:45:08.323Z,5.05
2019-03-26T23:47:36.945Z,5.03
2019-03-26T23:50:08.085Z,4.80
2019-03-26T23:52:36.523Z,5.33
2019-03-26T23:55:06.562Z,6.00
2019-03-26T23:57:37.430Z,5.62
